sensor_id;sensor_type;location;lat;lon;timestamp;P1;durP1;ratioP1;P2;durP2;ratioP2
19587;SDS011;9940;47.252;8.696;2023-04-25T00:01:00;1.83;;;1.50;;
19587;SDS011;9940;47.252;8.696;2023-04-25T00:03:27;4.53;;;1.67;;
19587;SDS011;9940;47.252;8.696;2023-04-25T00:05:55;2.40;;;1.80;;
19587;SDS011;9940;47.252;8.696;2023-04-25T00:08:21;3.67;;;1.70;;
19587;SDS011;9940;47.252;8.696;2023-04-25T00:10:47;6.00;;;1.90;;
19587;SDS011;9940;47.252;8.696;2023-04-25T00:13:14;2.65;;;1.52;;
19587;SDS011;9940;47.252;8.696;2023-04-25T00:15:42;4.45;;;1.60;;
19587;SDS011;9940;47.252;8.696;2023-04-25T00:18:10;4.97;;;1.75;;
19587;SDS011;9940;47.252;8.696;2023-04-25T00:20:36;5.25;;;1.58;;
19587;SDS011;9940;47.252;8.696;2023-04-25T00:23:04;2.95;;;1.55;;
19587;SDS011;9940;47.252;8.696;2023-04-25T00:25:30;3.45;;;1.40;;
19587;SDS011;9940;47.252;8.696;2023-04-25T00:27:56;4.40;;;1.60;;
19587;SDS011;9940;47.252;8.696;2023-04-25T00:30:21;5.85;;;1.83;;
19587;SDS011;9940;47.252;8.696;2023-04-25T00:32:47;3.13;;;1.60;;
19587;SDS011;9940;47.252;8.696;2023-04-25T00:35:13;3.53;;;1.92;;
19587;SDS011;9940;47.252;8.696;2023-04-25T00:37:42;1.90;;;1.70;;
19587;SDS011;9940;47.252;8.696;2023-04-25T00:40:07;3.65;;;1.90;;
19587;SDS011;9940;47.252;8.696;2023-04-25T00:42:34;3.35;;;1.85;;
19587;SDS011;9940;47.252;8.696;2023-04-25T00:45:01;3.83;;;1.80;;
19587;SDS011;9940;47.252;8.696;2023-04-25T00:47:27;2.97;;;1.80;;
19587;SDS011;9940;47.252;8.696;2023-04-25T00:49:53;5.03;;;2.03;;
19587;SDS011;9940;47.252;8.696;2023-04-25T00:52:19;2.15;;;1.58;;
19587;SDS011;9940;47.252;8.696;2023-04-25T00:54:45;4.22;;;2.22;;
19587;SDS011;9940;47.252;8.696;2023-04-25T00:57:13;4.40;;;1.83;;
19587;SDS011;9940;47.252;8.696;2023-04-25T00:59:41;3.42;;;2.08;;
19587;SDS011;9940;47.252;8.696;2023-04-25T01:02:11;6.15;;;2.15;;
19587;SDS011;9940;47.252;8.696;2023-04-25T01:04:37;2.58;;;1.65;;
19587;SDS011;9940;47.252;8.696;2023-04-25T01:07:04;3.28;;;1.80;;
19587;SDS011;9940;47.252;8.696;2023-04-25T01:09:30;3.95;;;1.60;;
19587;SDS011;9940;47.252;8.696;2023-04-25T01:11:57;4.20;;;1.67;;
19587;SDS011;9940;47.252;8.696;2023-04-25T01:14:23;2.88;;;1.80;;
19587;SDS011;9940;47.252;8.696;2023-04-25T01:16:50;4.60;;;1.75;;
19587;SDS011;9940;47.252;8.696;2023-04-25T01:19:19;4.53;;;1.65;;
19587;SDS011;9940;47.252;8.696;2023-04-25T01:21:47;3.95;;;1.90;;
19587;SDS011;9940;47.252;8.696;2023-04-25T01:24:13;4.20;;;1.67;;
19587;SDS011;9940;47.252;8.696;2023-04-25T01:26:41;3.13;;;1.50;;
19587;SDS011;9940;47.252;8.696;2023-04-25T01:29:18;4.63;;;1.50;;
19587;SDS011;9940;47.252;8.696;2023-04-25T01:31:48;3.28;;;1.60;;
19587;SDS011;9940;47.252;8.696;2023-04-25T01:34:16;4.00;;;1.42;;
19587;SDS011;9940;47.252;8.696;2023-04-25T01:36:43;3.90;;;1.23;;
19587;SDS011;9940;47.252;8.696;2023-04-25T01:39:12;8.32;;;1.40;;
19587;SDS011;9940;47.252;8.696;2023-04-25T01:41:40;4.30;;;1.38;;
19587;SDS011;9940;47.252;8.696;2023-04-25T01:44:11;7.28;;;1.40;;
19587;SDS011;9940;47.252;8.696;2023-04-25T01:46:36;2.53;;;1.42;;
19587;SDS011;9940;47.252;8.696;2023-04-25T01:49:02;3.95;;;1.65;;
19587;SDS011;9940;47.252;8.696;2023-04-25T01:51:30;4.63;;;1.50;;
19587;SDS011;9940;47.252;8.696;2023-04-25T01:53:56;4.90;;;1.70;;
19587;SDS011;9940;47.252;8.696;2023-04-25T01:56:22;5.05;;;1.50;;
19587;SDS011;9940;47.252;8.696;2023-04-25T01:58:48;3.45;;;2.17;;
19587;SDS011;9940;47.252;8.696;2023-04-25T02:01:14;3.17;;;1.30;;
19587;SDS011;9940;47.252;8.696;2023-04-25T02:03:39;2.60;;;1.60;;
19587;SDS011;9940;47.252;8.696;2023-04-25T02:06:07;4.63;;;1.73;;
19587;SDS011;9940;47.252;8.696;2023-04-25T02:08:35;2.67;;;1.40;;
19587;SDS011;9940;47.252;8.696;2023-04-25T02:11:04;2.53;;;1.30;;
19587;SDS011;9940;47.252;8.696;2023-04-25T02:13:30;5.25;;;1.50;;
19587;SDS011;9940;47.252;8.696;2023-04-25T02:15:58;3.88;;;1.50;;
19587;SDS011;9940;47.252;8.696;2023-04-25T02:18:23;5.25;;;1.65;;
19587;SDS011;9940;47.252;8.696;2023-04-25T02:20:51;2.30;;;1.58;;
19587;SDS011;9940;47.252;8.696;2023-04-25T02:23:16;3.53;;;1.38;;
19587;SDS011;9940;47.252;8.696;2023-04-25T02:25:44;3.88;;;1.58;;
19587;SDS011;9940;47.252;8.696;2023-04-25T02:28:12;7.15;;;1.88;;
19587;SDS011;9940;47.252;8.696;2023-04-25T02:30:37;2.70;;;1.40;;
19587;SDS011;9940;47.252;8.696;2023-04-25T02:33:03;3.33;;;1.48;;
19587;SDS011;9940;47.252;8.696;2023-04-25T02:35:29;2.17;;;1.30;;
19587;SDS011;9940;47.252;8.696;2023-04-25T02:37:54;3.72;;;1.40;;
19587;SDS011;9940;47.252;8.696;2023-04-25T02:40:20;3.65;;;1.40;;
19587;SDS011;9940;47.252;8.696;2023-04-25T02:42:45;3.92;;;1.48;;
19587;SDS011;9940;47.252;8.696;2023-04-25T02:45:13;2.78;;;1.40;;
19587;SDS011;9940;47.252;8.696;2023-04-25T02:47:39;5.32;;;1.60;;
19587;SDS011;9940;47.252;8.696;2023-04-25T02:50:07;2.50;;;1.65;;
19587;SDS011;9940;47.252;8.696;2023-04-25T02:52:33;4.18;;;1.65;;
19587;SDS011;9940;47.252;8.696;2023-04-25T02:54:59;2.55;;;1.45;;
19587;SDS011;9940;47.252;8.696;2023-04-25T02:57:26;3.63;;;1.30;;
19587;SDS011;9940;47.252;8.696;2023-04-25T02:59:52;4.10;;;1.35;;
19587;SDS011;9940;47.252;8.696;2023-04-25T03:02:17;5.95;;;1.70;;
19587;SDS011;9940;47.252;8.696;2023-04-25T03:04:43;4.70;;;1.33;;
19587;SDS011;9940;47.252;8.696;2023-04-25T03:07:13;4.25;;;1.30;;
19587;SDS011;9940;47.252;8.696;2023-04-25T03:09:39;2.13;;;1.50;;
19587;SDS011;9940;47.252;8.696;2023-04-25T03:12:05;3.75;;;1.40;;
19587;SDS011;9940;47.252;8.696;2023-04-25T03:14:30;3.13;;;1.50;;
19587;SDS011;9940;47.252;8.696;2023-04-25T03:16:56;6.35;;;1.60;;
19587;SDS011;9940;47.252;8.696;2023-04-25T03:19:22;2.45;;;1.33;;
19587;SDS011;9940;47.252;8.696;2023-04-25T03:21:50;5.63;;;1.58;;
19587;SDS011;9940;47.252;8.696;2023-04-25T03:24:21;3.97;;;1.52;;
19587;SDS011;9940;47.252;8.696;2023-04-25T03:26:46;1.85;;;1.38;;
19587;SDS011;9940;47.252;8.696;2023-04-25T03:29:12;4.10;;;1.55;;
19587;SDS011;9940;47.252;8.696;2023-04-25T03:31:38;4.82;;;1.48;;
19587;SDS011;9940;47.252;8.696;2023-04-25T03:34:03;3.05;;;1.60;;
19587;SDS011;9940;47.252;8.696;2023-04-25T03:36:29;2.83;;;1.50;;
19587;SDS011;9940;47.252;8.696;2023-04-25T03:39:00;3.15;;;1.45;;
19587;SDS011;9940;47.252;8.696;2023-04-25T03:41:25;4.43;;;1.85;;
19587;SDS011;9940;47.252;8.696;2023-04-25T03:43:54;5.57;;;1.67;;
19587;SDS011;9940;47.252;8.696;2023-04-25T03:46:22;3.20;;;1.70;;
19587;SDS011;9940;47.252;8.696;2023-04-25T03:48:50;6.75;;;1.90;;
19587;SDS011;9940;47.252;8.696;2023-04-25T03:51:16;6.22;;;1.70;;
19587;SDS011;9940;47.252;8.696;2023-04-25T03:53:41;3.40;;;1.85;;
19587;SDS011;9940;47.252;8.696;2023-04-25T03:56:07;6.13;;;1.67;;
19587;SDS011;9940;47.252;8.696;2023-04-25T03:58:32;3.25;;;1.73;;
19587;SDS011;9940;47.252;8.696;2023-04-25T04:01:00;2.40;;;1.38;;
19587;SDS011;9940;47.252;8.696;2023-04-25T04:03:32;5.22;;;1.67;;
19587;SDS011;9940;47.252;8.696;2023-04-25T04:06:03;6.55;;;1.63;;
19587;SDS011;9940;47.252;8.696;2023-04-25T04:08:30;6.90;;;2.22;;
19587;SDS011;9940;47.252;8.696;2023-04-25T04:10:57;2.97;;;1.58;;
19587;SDS011;9940;47.252;8.696;2023-04-25T04:13:23;6.70;;;1.65;;
19587;SDS011;9940;47.252;8.696;2023-04-25T04:15:54;4.82;;;1.80;;
19587;SDS011;9940;47.252;8.696;2023-04-25T04:18:20;4.55;;;1.92;;
19587;SDS011;9940;47.252;8.696;2023-04-25T04:20:46;3.00;;;2.67;;
19587;SDS011;9940;47.252;8.696;2023-04-25T04:23:12;3.08;;;2.20;;
19587;SDS011;9940;47.252;8.696;2023-04-25T04:25:40;5.43;;;2.58;;
19587;SDS011;9940;47.252;8.696;2023-04-25T04:28:06;10.48;;;9.20;;
19587;SDS011;9940;47.252;8.696;2023-04-25T04:30:32;10.80;;;7.93;;
19587;SDS011;9940;47.252;8.696;2023-04-25T04:33:02;5.75;;;5.25;;
19587;SDS011;9940;47.252;8.696;2023-04-25T04:35:28;8.60;;;4.53;;
19587;SDS011;9940;47.252;8.696;2023-04-25T04:37:56;7.78;;;4.38;;
19587;SDS011;9940;47.252;8.696;2023-04-25T04:40:24;6.30;;;4.68;;
19587;SDS011;9940;47.252;8.696;2023-04-25T04:42:50;6.75;;;3.28;;
19587;SDS011;9940;47.252;8.696;2023-04-25T04:45:21;5.75;;;2.92;;
19587;SDS011;9940;47.252;8.696;2023-04-25T04:47:47;5.07;;;2.58;;
19587;SDS011;9940;47.252;8.696;2023-04-25T04:50:14;5.03;;;2.22;;
19587;SDS011;9940;47.252;8.696;2023-04-25T04:52:41;3.15;;;2.08;;
19587;SDS011;9940;47.252;8.696;2023-04-25T04:55:06;4.10;;;1.50;;
19587;SDS011;9940;47.252;8.696;2023-04-25T04:57:33;6.03;;;2.42;;
19587;SDS011;9940;47.252;8.696;2023-04-25T04:59:59;2.38;;;1.70;;
19587;SDS011;9940;47.252;8.696;2023-04-25T05:02:30;2.70;;;1.35;;
19587;SDS011;9940;47.252;8.696;2023-04-25T05:04:55;9.38;;;1.80;;
19587;SDS011;9940;47.252;8.696;2023-04-25T05:07:21;2.50;;;1.60;;
19587;SDS011;9940;47.252;8.696;2023-04-25T05:09:47;3.10;;;1.55;;
19587;SDS011;9940;47.252;8.696;2023-04-25T05:12:12;3.08;;;1.85;;
19587;SDS011;9940;47.252;8.696;2023-04-25T05:14:38;3.65;;;1.40;;
19587;SDS011;9940;47.252;8.696;2023-04-25T05:17:04;3.03;;;1.70;;
19587;SDS011;9940;47.252;8.696;2023-04-25T05:19:33;4.28;;;1.67;;
19587;SDS011;9940;47.252;8.696;2023-04-25T05:22:01;2.97;;;1.40;;
19587;SDS011;9940;47.252;8.696;2023-04-25T05:24:30;4.35;;;1.30;;
19587;SDS011;9940;47.252;8.696;2023-04-25T05:26:56;3.65;;;1.02;;
19587;SDS011;9940;47.252;8.696;2023-04-25T05:29:21;2.13;;;1.23;;
19587;SDS011;9940;47.252;8.696;2023-04-25T05:31:49;3.42;;;1.20;;
19587;SDS011;9940;47.252;8.696;2023-04-25T05:34:15;2.45;;;0.90;;
19587;SDS011;9940;47.252;8.696;2023-04-25T05:36:43;3.10;;;1.17;;
19587;SDS011;9940;47.252;8.696;2023-04-25T05:39:10;3.35;;;1.15;;
19587;SDS011;9940;47.252;8.696;2023-04-25T05:41:38;3.90;;;1.00;;
19587;SDS011;9940;47.252;8.696;2023-04-25T05:44:07;3.63;;;1.05;;
19587;SDS011;9940;47.252;8.696;2023-04-25T05:46:35;2.47;;;0.85;;
19587;SDS011;9940;47.252;8.696;2023-04-25T05:49:01;3.42;;;1.17;;
19587;SDS011;9940;47.252;8.696;2023-04-25T05:51:29;2.42;;;1.08;;
19587;SDS011;9940;47.252;8.696;2023-04-25T05:53:59;4.13;;;1.17;;
19587;SDS011;9940;47.252;8.696;2023-04-25T05:56:26;3.22;;;1.25;;
19587;SDS011;9940;47.252;8.696;2023-04-25T05:58:52;1.35;;;0.90;;
19587;SDS011;9940;47.252;8.696;2023-04-25T06:01:18;3.28;;;1.00;;
19587;SDS011;9940;47.252;8.696;2023-04-25T06:03:46;2.35;;;0.85;;
19587;SDS011;9940;47.252;8.696;2023-04-25T06:06:12;1.48;;;0.98;;
19587;SDS011;9940;47.252;8.696;2023-04-25T06:08:42;2.45;;;0.82;;
19587;SDS011;9940;47.252;8.696;2023-04-25T06:11:10;4.18;;;1.13;;
19587;SDS011;9940;47.252;8.696;2023-04-25T06:13:36;2.15;;;1.08;;
19587;SDS011;9940;47.252;8.696;2023-04-25T06:16:01;2.97;;;1.20;;
19587;SDS011;9940;47.252;8.696;2023-04-25T06:18:30;5.32;;;1.20;;
19587;SDS011;9940;47.252;8.696;2023-04-25T06:20:55;1.25;;;0.90;;
19587;SDS011;9940;47.252;8.696;2023-04-25T06:23:21;9.10;;;1.95;;
19587;SDS011;9940;47.252;8.696;2023-04-25T06:25:46;1.20;;;0.90;;
19587;SDS011;9940;47.252;8.696;2023-04-25T06:28:12;5.15;;;1.30;;
19587;SDS011;9940;47.252;8.696;2023-04-25T06:30:40;2.30;;;1.15;;
19587;SDS011;9940;47.252;8.696;2023-04-25T06:33:05;2.17;;;1.10;;
19587;SDS011;9940;47.252;8.696;2023-04-25T06:35:33;1.85;;;1.00;;
19587;SDS011;9940;47.252;8.696;2023-04-25T06:37:59;3.58;;;1.23;;
19587;SDS011;9940;47.252;8.696;2023-04-25T06:40:25;4.70;;;1.33;;
19587;SDS011;9940;47.252;8.696;2023-04-25T06:42:53;2.28;;;1.10;;
19587;SDS011;9940;47.252;8.696;2023-04-25T06:45:19;2.05;;;1.20;;
19587;SDS011;9940;47.252;8.696;2023-04-25T06:47:45;2.80;;;0.90;;
19587;SDS011;9940;47.252;8.696;2023-04-25T06:50:13;2.88;;;1.10;;
19587;SDS011;9940;47.252;8.696;2023-04-25T06:52:38;3.42;;;1.00;;
19587;SDS011;9940;47.252;8.696;2023-04-25T06:55:04;2.88;;;1.05;;
19587;SDS011;9940;47.252;8.696;2023-04-25T06:57:30;1.70;;;1.02;;
19587;SDS011;9940;47.252;8.696;2023-04-25T06:59:58;2.40;;;1.45;;
19587;SDS011;9940;47.252;8.696;2023-04-25T07:02:30;2.42;;;1.20;;
19587;SDS011;9940;47.252;8.696;2023-04-25T07:05:01;1.67;;;1.00;;
19587;SDS011;9940;47.252;8.696;2023-04-25T07:07:29;4.35;;;1.38;;
19587;SDS011;9940;47.252;8.696;2023-04-25T07:09:55;2.67;;;1.08;;
19587;SDS011;9940;47.252;8.696;2023-04-25T07:12:23;1.60;;;1.05;;
19587;SDS011;9940;47.252;8.696;2023-04-25T07:14:49;2.60;;;1.30;;
19587;SDS011;9940;47.252;8.696;2023-04-25T07:17:17;3.03;;;0.95;;
19587;SDS011;9940;47.252;8.696;2023-04-25T07:19:43;1.00;;;0.80;;
19587;SDS011;9940;47.252;8.696;2023-04-25T07:22:11;3.83;;;0.95;;
19587;SDS011;9940;47.252;8.696;2023-04-25T07:24:36;3.15;;;1.00;;
19587;SDS011;9940;47.252;8.696;2023-04-25T07:27:02;2.83;;;0.90;;
19587;SDS011;9940;47.252;8.696;2023-04-25T07:29:28;1.85;;;1.00;;
19587;SDS011;9940;47.252;8.696;2023-04-25T07:31:55;5.07;;;1.15;;
19587;SDS011;9940;47.252;8.696;2023-04-25T07:34:20;3.50;;;1.20;;
19587;SDS011;9940;47.252;8.696;2023-04-25T07:36:48;3.83;;;1.40;;
19587;SDS011;9940;47.252;8.696;2023-04-25T07:39:14;4.97;;;1.48;;
19587;SDS011;9940;47.252;8.696;2023-04-25T07:41:40;1.83;;;1.00;;
19587;SDS011;9940;47.252;8.696;2023-04-25T07:44:08;2.17;;;1.17;;
19587;SDS011;9940;47.252;8.696;2023-04-25T07:46:33;3.22;;;1.20;;
19587;SDS011;9940;47.252;8.696;2023-04-25T07:48:59;1.95;;;1.20;;
19587;SDS011;9940;47.252;8.696;2023-04-25T07:51:25;2.08;;;1.20;;
19587;SDS011;9940;47.252;8.696;2023-04-25T07:53:55;3.58;;;0.98;;
19587;SDS011;9940;47.252;8.696;2023-04-25T07:56:23;1.23;;;0.90;;
19587;SDS011;9940;47.252;8.696;2023-04-25T07:58:49;2.38;;;1.20;;
19587;SDS011;9940;47.252;8.696;2023-04-25T08:01:15;1.92;;;1.38;;
19587;SDS011;9940;47.252;8.696;2023-04-25T08:03:41;4.47;;;1.38;;
19587;SDS011;9940;47.252;8.696;2023-04-25T08:06:09;2.28;;;1.40;;
19587;SDS011;9940;47.252;8.696;2023-04-25T08:08:37;2.22;;;1.13;;
19587;SDS011;9940;47.252;8.696;2023-04-25T08:11:03;2.78;;;1.40;;
19587;SDS011;9940;47.252;8.696;2023-04-25T08:13:30;2.05;;;1.20;;
19587;SDS011;9940;47.252;8.696;2023-04-25T08:15:56;2.97;;;1.38;;
19587;SDS011;9940;47.252;8.696;2023-04-25T08:18:24;2.80;;;1.60;;
19587;SDS011;9940;47.252;8.696;2023-04-25T08:20:51;3.22;;;1.42;;
19587;SDS011;9940;47.252;8.696;2023-04-25T08:23:20;1.67;;;1.40;;
19587;SDS011;9940;47.252;8.696;2023-04-25T08:25:45;3.88;;;1.88;;
19587;SDS011;9940;47.252;8.696;2023-04-25T08:28:11;3.05;;;1.38;;
19587;SDS011;9940;47.252;8.696;2023-04-25T08:30:40;2.42;;;1.45;;
19587;SDS011;9940;47.252;8.696;2023-04-25T08:33:07;2.67;;;1.50;;
19587;SDS011;9940;47.252;8.696;2023-04-25T08:35:33;2.08;;;1.23;;
19587;SDS011;9940;47.252;8.696;2023-04-25T08:37:59;2.13;;;1.27;;
19587;SDS011;9940;47.252;8.696;2023-04-25T08:40:27;3.47;;;1.65;;
19587;SDS011;9940;47.252;8.696;2023-04-25T08:42:59;2.58;;;1.30;;
19587;SDS011;9940;47.252;8.696;2023-04-25T08:45:28;5.70;;;1.27;;
19587;SDS011;9940;47.252;8.696;2023-04-25T08:47:59;3.40;;;1.55;;
19587;SDS011;9940;47.252;8.696;2023-04-25T08:50:29;5.47;;;1.70;;
19587;SDS011;9940;47.252;8.696;2023-04-25T08:52:55;2.88;;;1.40;;
19587;SDS011;9940;47.252;8.696;2023-04-25T08:55:28;3.40;;;1.45;;
19587;SDS011;9940;47.252;8.696;2023-04-25T08:57:57;1.85;;;1.20;;
19587;SDS011;9940;47.252;8.696;2023-04-25T09:02:53;2.95;;;1.13;;
19587;SDS011;9940;47.252;8.696;2023-04-25T09:05:20;3.03;;;1.42;;
19587;SDS011;9940;47.252;8.696;2023-04-25T09:07:45;4.05;;;1.70;;
19587;SDS011;9940;47.252;8.696;2023-04-25T09:10:11;2.53;;;1.55;;
19587;SDS011;9940;47.252;8.696;2023-04-25T09:12:39;3.20;;;1.60;;
19587;SDS011;9940;47.252;8.696;2023-04-25T09:17:35;3.47;;;1.33;;
19587;SDS011;9940;47.252;8.696;2023-04-25T09:20:08;4.57;;;1.60;;
19587;SDS011;9940;47.252;8.696;2023-04-25T09:22:38;5.55;;;1.77;;
19587;SDS011;9940;47.252;8.696;2023-04-25T09:25:07;2.53;;;1.23;;
19587;SDS011;9940;47.252;8.696;2023-04-25T09:27:51;4.43;;;1.48;;
19587;SDS011;9940;47.252;8.696;2023-04-25T09:30:30;4.45;;;1.52;;
19587;SDS011;9940;47.252;8.696;2023-04-25T09:32:57;3.35;;;1.20;;
19587;SDS011;9940;47.252;8.696;2023-04-25T09:35:36;1.13;;;1.02;;
19587;SDS011;9940;47.252;8.696;2023-04-25T09:38:14;2.60;;;1.20;;
19587;SDS011;9940;47.252;8.696;2023-04-25T09:40:46;3.65;;;1.33;;
19587;SDS011;9940;47.252;8.696;2023-04-25T09:43:21;1.15;;;1.00;;
19587;SDS011;9940;47.252;8.696;2023-04-25T09:45:48;3.47;;;1.38;;
19587;SDS011;9940;47.252;8.696;2023-04-25T09:48:20;3.55;;;1.40;;
19587;SDS011;9940;47.252;8.696;2023-04-25T09:51:09;1.40;;;1.23;;
19587;SDS011;9940;47.252;8.696;2023-04-25T09:53:39;1.95;;;0.80;;
19587;SDS011;9940;47.252;8.696;2023-04-25T09:58:38;1.08;;;0.90;;
19587;SDS011;9940;47.252;8.696;2023-04-25T10:01:05;1.52;;;0.85;;
19587;SDS011;9940;47.252;8.696;2023-04-25T10:03:33;2.25;;;0.90;;
19587;SDS011;9940;47.252;8.696;2023-04-25T10:06:03;3.58;;;1.20;;
19587;SDS011;9940;47.252;8.696;2023-04-25T10:08:36;1.40;;;1.13;;
19587;SDS011;9940;47.252;8.696;2023-04-25T10:11:04;1.35;;;1.08;;
19587;SDS011;9940;47.252;8.696;2023-04-25T10:13:30;2.63;;;1.00;;
19587;SDS011;9940;47.252;8.696;2023-04-25T10:15:57;0.40;;;0.40;;
19587;SDS011;9940;47.252;8.696;2023-04-25T10:18:26;0.80;;;0.60;;
19587;SDS011;9940;47.252;8.696;2023-04-25T10:20:56;0.82;;;0.80;;
19587;SDS011;9940;47.252;8.696;2023-04-25T10:23:24;0.70;;;0.60;;
19587;SDS011;9940;47.252;8.696;2023-04-25T10:25:51;1.27;;;0.82;;
19587;SDS011;9940;47.252;8.696;2023-04-25T10:28:17;1.00;;;0.88;;
19587;SDS011;9940;47.252;8.696;2023-04-25T10:36:13;1.15;;;0.70;;
19587;SDS011;9940;47.252;8.696;2023-04-25T10:38:42;0.85;;;0.52;;
19587;SDS011;9940;47.252;8.696;2023-04-25T10:41:11;0.47;;;0.47;;
19587;SDS011;9940;47.252;8.696;2023-04-25T10:43:43;0.32;;;0.32;;
19587;SDS011;9940;47.252;8.696;2023-04-25T10:48:45;0.95;;;0.60;;
19587;SDS011;9940;47.252;8.696;2023-04-25T10:51:19;0.75;;;0.50;;
19587;SDS011;9940;47.252;8.696;2023-04-25T10:54:07;0.60;;;0.60;;
19587;SDS011;9940;47.252;8.696;2023-04-25T10:56:40;1.27;;;0.80;;
19587;SDS011;9940;47.252;8.696;2023-04-25T11:01:45;1.20;;;1.10;;
19587;SDS011;9940;47.252;8.696;2023-04-25T11:09:55;1.48;;;1.05;;
19587;SDS011;9940;47.252;8.696;2023-04-25T11:12:20;2.45;;;1.10;;
19587;SDS011;9940;47.252;8.696;2023-04-25T11:14:46;1.77;;;1.17;;
19587;SDS011;9940;47.252;8.696;2023-04-25T11:17:12;2.33;;;1.10;;
19587;SDS011;9940;47.252;8.696;2023-04-25T11:19:38;2.55;;;1.95;;
19587;SDS011;9940;47.252;8.696;2023-04-25T11:22:05;1.52;;;1.25;;
19587;SDS011;9940;47.252;8.696;2023-04-25T11:24:33;1.15;;;0.80;;
19587;SDS011;9940;47.252;8.696;2023-04-25T11:27:04;1.08;;;0.98;;
19587;SDS011;9940;47.252;8.696;2023-04-25T11:29:33;1.63;;;1.17;;
19587;SDS011;9940;47.252;8.696;2023-04-25T11:31:59;1.45;;;1.00;;
19587;SDS011;9940;47.252;8.696;2023-04-25T11:34:28;2.08;;;1.40;;
19587;SDS011;9940;47.252;8.696;2023-04-25T11:36:58;2.00;;;1.10;;
19587;SDS011;9940;47.252;8.696;2023-04-25T11:39:27;1.40;;;1.20;;
19587;SDS011;9940;47.252;8.696;2023-04-25T11:41:53;1.23;;;1.00;;
19587;SDS011;9940;47.252;8.696;2023-04-25T11:44:23;2.35;;;1.25;;
19587;SDS011;9940;47.252;8.696;2023-04-25T11:46:51;1.40;;;1.30;;
19587;SDS011;9940;47.252;8.696;2023-04-25T11:49:19;2.33;;;1.38;;
19587;SDS011;9940;47.252;8.696;2023-04-25T11:51:47;1.38;;;1.27;;
19587;SDS011;9940;47.252;8.696;2023-04-25T11:54:13;2.15;;;1.35;;
19587;SDS011;9940;47.252;8.696;2023-04-25T11:56:41;1.35;;;1.25;;
19587;SDS011;9940;47.252;8.696;2023-04-25T11:59:10;3.08;;;1.13;;
19587;SDS011;9940;47.252;8.696;2023-04-25T12:01:37;1.75;;;1.30;;
19587;SDS011;9940;47.252;8.696;2023-04-25T12:04:16;2.67;;;1.08;;
19587;SDS011;9940;47.252;8.696;2023-04-25T12:06:45;1.17;;;1.00;;
19587;SDS011;9940;47.252;8.696;2023-04-25T12:09:14;1.10;;;1.00;;
19587;SDS011;9940;47.252;8.696;2023-04-25T12:14:11;1.85;;;0.70;;
19587;SDS011;9940;47.252;8.696;2023-04-25T12:16:46;1.42;;;0.70;;
19587;SDS011;9940;47.252;8.696;2023-04-25T12:19:13;0.70;;;0.70;;
19587;SDS011;9940;47.252;8.696;2023-04-25T12:21:43;0.90;;;0.55;;
19587;SDS011;9940;47.252;8.696;2023-04-25T12:24:16;0.82;;;0.57;;
19587;SDS011;9940;47.252;8.696;2023-04-25T12:29:30;0.88;;;0.70;;
19587;SDS011;9940;47.252;8.696;2023-04-25T12:32:01;2.30;;;0.70;;
19587;SDS011;9940;47.252;8.696;2023-04-25T12:34:27;0.40;;;0.40;;
19587;SDS011;9940;47.252;8.696;2023-04-25T12:36:53;0.70;;;0.63;;
19587;SDS011;9940;47.252;8.696;2023-04-25T12:39:19;0.50;;;0.50;;
19587;SDS011;9940;47.252;8.696;2023-04-25T12:41:52;0.57;;;0.30;;
19587;SDS011;9940;47.252;8.696;2023-04-25T12:44:19;0.40;;;0.40;;
19587;SDS011;9940;47.252;8.696;2023-04-25T12:46:45;1.40;;;0.47;;
19587;SDS011;9940;47.252;8.696;2023-04-25T12:49:11;0.47;;;0.38;;
19587;SDS011;9940;47.252;8.696;2023-04-25T12:51:37;1.50;;;0.50;;
19587;SDS011;9940;47.252;8.696;2023-04-25T12:54:03;0.82;;;0.50;;
19587;SDS011;9940;47.252;8.696;2023-04-25T12:56:33;1.02;;;0.60;;
19587;SDS011;9940;47.252;8.696;2023-04-25T12:58:59;2.10;;;0.70;;
19587;SDS011;9940;47.252;8.696;2023-04-25T13:01:25;0.68;;;0.68;;
19587;SDS011;9940;47.252;8.696;2023-04-25T13:03:54;0.80;;;0.80;;
19587;SDS011;9940;47.252;8.696;2023-04-25T13:06:21;1.35;;;1.25;;
19587;SDS011;9940;47.252;8.696;2023-04-25T13:08:49;1.52;;;1.42;;
19587;SDS011;9940;47.252;8.696;2023-04-25T13:11:15;0.90;;;0.90;;
19587;SDS011;9940;47.252;8.696;2023-04-25T13:13:43;2.58;;;0.88;;
19587;SDS011;9940;47.252;8.696;2023-04-25T13:16:09;1.35;;;0.80;;
19587;SDS011;9940;47.252;8.696;2023-04-25T13:18:35;0.80;;;0.80;;
19587;SDS011;9940;47.252;8.696;2023-04-25T13:21:04;1.08;;;1.00;;
19587;SDS011;9940;47.252;8.696;2023-04-25T13:23:30;0.82;;;0.82;;
19587;SDS011;9940;47.252;8.696;2023-04-25T13:25:56;0.77;;;0.63;;
19587;SDS011;9940;47.252;8.696;2023-04-25T13:28:28;1.20;;;1.10;;
19587;SDS011;9940;47.252;8.696;2023-04-25T13:30:58;0.70;;;0.70;;
19587;SDS011;9940;47.252;8.696;2023-04-25T13:33:24;0.65;;;0.65;;
19587;SDS011;9940;47.252;8.696;2023-04-25T13:35:53;0.57;;;0.57;;
19587;SDS011;9940;47.252;8.696;2023-04-25T13:38:23;0.60;;;0.60;;
19587;SDS011;9940;47.252;8.696;2023-04-25T13:40:52;0.68;;;0.55;;
19587;SDS011;9940;47.252;8.696;2023-04-25T13:43:19;0.80;;;0.80;;
19587;SDS011;9940;47.252;8.696;2023-04-25T13:45:48;0.90;;;0.70;;
19587;SDS011;9940;47.252;8.696;2023-04-25T13:48:16;1.05;;;0.60;;
19587;SDS011;9940;47.252;8.696;2023-04-25T13:50:45;2.40;;;0.70;;
19587;SDS011;9940;47.252;8.696;2023-04-25T13:53:11;0.55;;;0.55;;
19587;SDS011;9940;47.252;8.696;2023-04-25T13:55:39;0.60;;;0.60;;
19587;SDS011;9940;47.252;8.696;2023-04-25T13:58:05;1.25;;;0.70;;
19587;SDS011;9940;47.252;8.696;2023-04-25T14:00:36;1.23;;;0.80;;
19587;SDS011;9940;47.252;8.696;2023-04-25T14:03:03;1.10;;;0.60;;
19587;SDS011;9940;47.252;8.696;2023-04-25T14:05:34;2.50;;;1.00;;
19587;SDS011;9940;47.252;8.696;2023-04-25T14:08:03;1.20;;;0.70;;
19587;SDS011;9940;47.252;8.696;2023-04-25T14:10:29;0.45;;;0.45;;
19587;SDS011;9940;47.252;8.696;2023-04-25T14:12:55;0.85;;;0.40;;
19587;SDS011;9940;47.252;8.696;2023-04-25T14:15:21;1.02;;;0.60;;
19587;SDS011;9940;47.252;8.696;2023-04-25T14:17:46;0.73;;;0.60;;
19587;SDS011;9940;47.252;8.696;2023-04-25T14:20:14;0.70;;;0.52;;
19587;SDS011;9940;47.252;8.696;2023-04-25T14:22:40;0.60;;;0.60;;
19587;SDS011;9940;47.252;8.696;2023-04-25T14:25:08;0.73;;;0.70;;
19587;SDS011;9940;47.252;8.696;2023-04-25T14:27:36;1.65;;;0.80;;
19587;SDS011;9940;47.252;8.696;2023-04-25T14:30:02;0.60;;;0.57;;
19587;SDS011;9940;47.252;8.696;2023-04-25T14:32:29;1.35;;;0.80;;
19587;SDS011;9940;47.252;8.696;2023-04-25T14:35:00;1.58;;;0.77;;
19587;SDS011;9940;47.252;8.696;2023-04-25T14:37:25;1.35;;;0.80;;
19587;SDS011;9940;47.252;8.696;2023-04-25T14:39:51;1.60;;;0.80;;
19587;SDS011;9940;47.252;8.696;2023-04-25T14:42:17;0.70;;;0.60;;
19587;SDS011;9940;47.252;8.696;2023-04-25T14:44:42;1.95;;;0.82;;
19587;SDS011;9940;47.252;8.696;2023-04-25T14:47:08;0.75;;;0.75;;
19587;SDS011;9940;47.252;8.696;2023-04-25T14:49:33;1.15;;;1.10;;
19587;SDS011;9940;47.252;8.696;2023-04-25T14:52:01;0.73;;;0.73;;
19587;SDS011;9940;47.252;8.696;2023-04-25T14:54:28;1.00;;;0.90;;
19587;SDS011;9940;47.252;8.696;2023-04-25T14:56:56;1.48;;;1.38;;
19587;SDS011;9940;47.252;8.696;2023-04-25T14:59:22;1.17;;;0.90;;
19587;SDS011;9940;47.252;8.696;2023-04-25T15:01:49;2.30;;;1.02;;
19587;SDS011;9940;47.252;8.696;2023-04-25T15:04:15;1.15;;;1.02;;
19587;SDS011;9940;47.252;8.696;2023-04-25T15:06:42;1.20;;;0.80;;
19587;SDS011;9940;47.252;8.696;2023-04-25T15:09:11;1.08;;;0.50;;
19587;SDS011;9940;47.252;8.696;2023-04-25T15:11:37;0.80;;;0.63;;
19587;SDS011;9940;47.252;8.696;2023-04-25T15:14:02;1.90;;;0.70;;
19587;SDS011;9940;47.252;8.696;2023-04-25T15:16:28;1.38;;;0.82;;
19587;SDS011;9940;47.252;8.696;2023-04-25T15:18:56;0.57;;;0.57;;
19587;SDS011;9940;47.252;8.696;2023-04-25T15:21:21;1.35;;;0.73;;
19587;SDS011;9940;47.252;8.696;2023-04-25T15:23:51;1.45;;;0.60;;
19587;SDS011;9940;47.252;8.696;2023-04-25T15:26:19;0.80;;;0.70;;
19587;SDS011;9940;47.252;8.696;2023-04-25T15:28:47;2.25;;;1.08;;
19587;SDS011;9940;47.252;8.696;2023-04-25T15:31:18;1.27;;;0.90;;